Time;durP1;ratioP1;P1;durP2;ratioP2;P2;SDS_P1;SDS_P2;PMS_P1;PMS_P2;Temp;Humidity;BMP_temperature;BMP_pressure;BME280_temperature;BME280_humidity;BME280_pressure;Samples;Min_cycle;Max_cycle;Signal;HPM_P1;HPM_P2
2022/10/05 00:01:52;;;;;;;;;4.00;3.00;;;;;19.02;40.29;101709.31;146620;633;46012;-74
2022/10/05 00:04:45;;;;;;;;;3.50;3.50;;;;;19.04;40.69;101719.91;146618;699;46021;-74
2022/10/05 00:07:44;;;;;;;;;4.50;4.50;;;;;19.06;40.54;101718.19;146620;618;46012;-68
2022/10/05 00:10:42;;;;;;;;;3.75;3.00;;;;;19.08;40.78;101721.78;146620;671;46010;-76
2022/10/05 00:13:37;;;;;;;;;5.00;5.00;;;;;19.04;41.70;101720.78;146617;666;46012;-70
2022/10/05 00:16:36;;;;;;;;;3.00;3.00;;;;;18.91;40.95;101727.38;146618;619;46020;-73
2022/10/05 00:19:51;;;;;;;;;4.00;3.00;;;;;18.86;40.13;101714.94;146617;569;46013;-70
2022/10/05 00:22:43;;;;;;;;;3.25;3.00;;;;;18.89;40.59;101722.91;146622;581;46010;-70
2022/10/05 00:25:47;;;;;;;;;0.00;0.00;;;;;18.92;41.07;101716.03;146618;592;46016;-71
2022/10/05 00:28:43;;;;;;;;;3.25;3.00;;;;;18.96;40.75;101721.37;146621;593;46020;-72
2022/10/05 00:31:40;;;;;;;;;3.50;3.50;;;;;18.88;41.08;101719.41;146614;647;46035;-73
2022/10/05 00:34:32;;;;;;;;;3.00;3.00;;;;;18.80;41.28;101720.88;146622;726;46010;-74
2022/10/05 00:37:29;;;;;;;;;4.00;3.50;;;;;18.79;41.51;101715.56;146618;608;46916;-72
2022/10/05 00:40:59;;;;;;;;;5.25;4.25;;;;;18.79;40.69;101719.09;146618;719;46021;-72
2022/10/05 00:44:34;;;;;;;;;3.00;3.00;;;;;18.76;40.72;101720.72;146614;574;46016;-72
2022/10/05 00:48:10;;;;;;;;;4.00;3.75;;;;;17.73;40.71;101563.13;146619;618;46020;-73
2022/10/05 00:51:29;;;;;;;;;3.00;3.00;;;;;18.60;42.04;101730.69;146615;734;46016;-73
2022/10/05 00:54:52;;;;;;;;;5.00;4.75;;;;;18.43;41.67;101723.94;146618;671;46010;-74
2022/10/05 00:58:09;;;;;;;;;5.00;5.00;;;;;18.38;41.07;101721.16;146617;607;46017;-72
2022/10/05 01:01:34;;;;;;;;;4.00;4.00;;;;;18.44;41.08;101723.06;146618;691;46020;-74
2022/10/05 01:04:54;;;;;;;;;5.50;5.00;;;;;18.48;41.77;101721.47;146616;689;46012;-71
2022/10/05 01:08:43;;;;;;;;;4.00;3.00;;;;;17.48;40.97;101563.97;146620;661;46010;-73
2022/10/05 01:12:13;;;;;;;;;3.75;3.25;;;;;18.41;41.09;101725.59;146617;668;46919;-70
2022/10/05 01:15:47;;;;;;;;;2.00;2.00;;;;;18.40;41.02;101734.31;146617;667;46020;-75
2022/10/05 01:19:11;;;;;;;;;4.00;3.75;;;;;18.37;41.37;101727.22;146611;665;47917;-74
2022/10/05 01:22:51;;;;;;;;;3.25;3.25;;;;;18.38;40.78;101734.28;146622;609;46010;-72
2022/10/05 01:26:42;;;;;;;;;5.00;3.25;;;;;18.39;41.19;101743.94;146615;674;46017;-74
2022/10/05 01:30:08;;;;;;;;;2.00;2.00;;;;;18.28;41.94;101742.66;146622;641;46010;-74
2022/10/05 01:33:23;;;;;;;;;2.50;2.50;;;;;18.11;42.02;101735.91;146615;613;46017;-74
2022/10/05 01:37:10;;;;;;;;;5.00;5.00;;;;;18.00;41.65;101739.00;146620;589;46020;-75
2022/10/05 01:41:06;;;;;;;;;;;;;;;;;;;;;
2022/10/05 01:44:32;;;;;;;;;2.75;2.75;;;;;17.90;42.60;101743.88;146622;721;46010;-73
2022/10/05 01:48:13;;;;;;;;;2.75;2.50;;;;;16.94;41.62;101581.09;146610;603;46017;-73
2022/10/05 01:51:45;;;;;;;;;4.75;3.50;;;;;17.96;42.54;101742.37;146620;639;46010;-72
2022/10/05 01:55:38;;;;;;;;;;;;;;;;;;;;;
2022/10/05 01:58:58;;;;;;;;;3.25;2.50;;;;;17.23;42.54;101611.06;146622;563;45022;-75
2022/10/05 02:02:12;;;;;;;;;4.00;4.00;;;;;16.91;42.55;101575.75;146619;669;46015;-70
2022/10/05 02:05:19;;;;;;;;;2.50;2.00;;;;;17.81;42.98;101740.91;146618;597;47012;-70
2022/10/05 02:08:37;;;;;;;;;4.00;4.00;;;;;17.77;43.20;101756.53;146616;574;47016;-71
2022/10/05 02:11:49;;;;;;;;;4.00;4.00;;;;;17.76;43.77;101743.34;146613;571;47021;-71
2022/10/05 02:15:20;;;;;;;;;4.25;4.00;;;;;15.97;42.62;101427.16;146617;618;46016;-72
2022/10/05 02:18:33;;;;;;;;;4.00;4.00;;;;;17.90;43.25;101762.25;146615;570;47010;-71
2022/10/05 02:21:31;;;;;;;;;4.50;4.00;;;;;17.92;43.46;101752.72;146618;617;46016;-71
2022/10/05 02:24:41;;;;;;;;;4.75;4.75;;;;;17.96;42.91;101757.22;146618;657;46010;-80
2022/10/05 02:28:15;;;;;;;;;3.00;3.00;;;;;17.03;42.52;101591.94;146619;672;46012;-72
2022/10/05 02:31:32;;;;;;;;;3.25;3.25;;;;;18.02;42.90;101764.44;146618;643;47027;-74
2022/10/05 02:34:49;;;;;;;;;4.00;4.00;;;;;18.02;43.10;101756.56;146619;583;46012;-70
2022/10/05 02:38:14;;;;;;;;;3.50;3.50;;;;;18.03;42.85;101766.22;146622;639;46010;-73
2022/10/05 02:42:01;;;;;;;;;5.50;4.75;;;;;18.06;42.06;101777.72;146619;648;46016;-73
2022/10/05 02:45:30;;;;;;;;;3.25;3.25;;;;;18.08;42.58;101764.66;146622;565;46010;-73
2022/10/05 02:49:03;;;;;;;;;6.75;4.00;;;;;18.10;42.62;101774.41;146618;675;46017;-72
2022/10/05 02:52:31;;;;;;;;;3.50;2.25;;;;;18.12;42.75;101783.19;146623;690;46010;-70
2022/10/05 02:55:36;;;;;;;;;3.00;3.00;;;;;18.13;43.01;101781.47;146617;623;46017;-71
2022/10/05 02:58:54;;;;;;;;;4.50;3.75;;;;;18.13;43.58;101786.72;146618;584;46020;-72
2022/10/05 03:02:04;;;;;;;;;3.75;3.25;;;;;18.09;42.97;101784.81;146617;660;46013;-73
2022/10/05 03:05:26;;;;;;;;;4.00;4.00;;;;;18.03;42.63;101787.22;146621;707;46010;-73
2022/10/05 03:08:50;;;;;;;;;5.00;5.00;;;;;17.93;43.69;101781.63;146609;569;47915;-74
2022/10/05 03:12:51;;;;;;;;;4.75;4.00;;;;;17.83;43.12;101781.22;146621;579;46020;-73
2022/10/05 03:16:18;;;;;;;;;4.75;3.75;;;;;17.77;43.62;101784.50;146618;597;46016;-76
2022/10/05 03:19:48;;;;;;;;;4.25;3.25;;;;;16.74;43.17;101615.22;146620;589;46021;-74
2022/10/05 03:23:34;;;;;;;;;4.50;4.00;;;;;16.88;42.99;101628.91;146614;616;46012;-71
2022/10/05 03:27:18;;;;;;;;;2.00;2.00;;;;;16.03;43.22;101484.94;146635;698;45021;-72
2022/10/05 03:30:31;;;;;;;;;4.00;4.00;;;;;17.68;43.72;101795.47;146633;585;45915;-69
2022/10/05 03:33:50;;;;;;;;;4.00;2.25;;;;;17.67;43.62;101784.94;146630;720;46021;-70
2022/10/05 03:37:27;;;;;;;;;3.75;3.75;;;;;16.75;43.52;101621.38;146635;563;45016;-71
2022/10/05 03:41:06;;;;;;;;;4.25;4.25;;;;;17.76;43.16;101791.44;146636;578;45021;-71
2022/10/05 03:44:45;;;;;;;;;4.75;4.75;;;;;17.81;43.95;101799.50;146634;597;45016;-73
2022/10/05 03:48:32;;;;;;;;;4.50;4.50;;;;;16.80;44.08;101623.37;146637;622;45021;-72
2022/10/05 03:51:50;;;;;;;;;;;;;;;;;;;;;
2022/10/05 03:55:09;;;;;;;;;3.00;3.00;;;;;17.75;43.68;101800.13;146633;648;46010;-74
2022/10/05 03:58:10;;;;;;;;;4.75;4.75;;;;;17.80;44.49;101797.72;146633;584;46014;-72
2022/10/05 04:01:09;;;;;;;;;5.25;3.75;;;;;17.82;44.33;101800.41;146637;577;45020;-73
2022/10/05 04:04:24;;;;;;;;;3.00;3.00;;;;;17.83;44.03;101799.59;146635;570;45030;-74
2022/10/05 04:07:50;;;;;;;;;5.25;5.25;;;;;17.87;43.58;101805.00;146637;611;45020;-75
2022/10/05 04:10:58;;;;;;;;;5.50;4.00;;;;;17.90;43.34;101805.12;146633;569;45016;-74
2022/10/05 04:14:09;;;;;;;;;3.75;2.75;;;;;17.93;43.91;101807.84;146634;571;45029;-74
2022/10/05 04:17:26;;;;;;;;;6.00;4.75;;;;;17.99;43.37;101817.69;146637;625;45013;-72
2022/10/05 04:20:57;;;;;;;;;4.25;4.25;;;;;17.19;43.30;101669.44;146632;714;46012;-70
2022/10/05 04:24:30;;;;;;;;;7.00;4.75;;;;;16.35;42.98;101525.50;146631;564;46016;-75
2022/10/05 04:27:40;;;;;;;;;5.00;4.25;;;;;17.96;43.30;101815.84;146621;618;46020;-76
2022/10/05 04:30:35;;;;;;;;;5.75;4.75;;;;;17.97;44.26;101822.91;146617;595;46017;-73
2022/10/05 04:33:56;;;;;;;;;3.75;3.50;;;;;17.29;43.20;101696.06;146619;569;46021;-72
2022/10/05 04:37:00;;;;;;;;;3.25;3.25;;;;;17.99;44.01;101825.56;146612;712;46018;-71
2022/10/05 04:40:32;;;;;;;;;3.00;2.75;;;;;17.99;43.07;101826.47;146616;655;45023;-70
2022/10/05 04:44:03;;;;;;;;;5.50;4.00;;;;;17.01;43.17;101651.28;146616;629;46034;-72
2022/10/05 04:47:35;;;;;;;;;4.50;4.00;;;;;17.97;42.99;101824.59;146622;573;46028;-72
2022/10/05 04:51:10;;;;;;;;;;;;;;;;;;;;;
2022/10/05 04:54:56;;;;;;;;;5.50;4.00;;;;;17.96;43.49;101834.22;146621;595;46021;-74
2022/10/05 04:58:33;;;;;;;;;5.00;4.25;;;;;16.99;43.22;101672.16;146617;571;46012;-74
2022/10/05 05:02:06;;;;;;;;;7.50;5.25;;;;;17.93;44.75;101849.84;146620;588;46020;-74
2022/10/05 05:05:42;;;;;;;;;6.00;4.75;;;;;16.90;44.05;101679.66;146615;616;46014;-73
2022/10/05 05:09:12;;;;;;;;;5.25;4.00;;;;;17.89;44.20;101855.81;146619;570;46021;-74
2022/10/05 05:12:43;;;;;;;;;5.50;4.50;;;;;17.87;44.48;101860.09;146616;605;46016;-73
2022/10/05 05:16:18;;;;;;;;;5.50;5.50;;;;;17.90;44.44;101868.09;146621;642;46010;-73
2022/10/05 05:19:36;;;;;;;;;4.50;4.50;;;;;18.20;44.58;101871.03;146614;592;46016;-74
2022/10/05 05:23:29;;;;;;;;;7.00;5.75;;;;;18.36;43.03;101724.56;146622;605;46021;-72
2022/10/05 05:26:57;;;;;;;;;5.75;4.00;;;;;20.50;41.79;101884.09;146635;612;45034;-74
2022/10/05 05:30:32;;;;;;;;;5.00;4.25;;;;;21.77;40.07;101891.88;146637;565;45021;-73
2022/10/05 05:34:06;;;;;;;;;8.75;7.00;;;;;22.63;37.82;101893.84;146632;673;45016;-76
2022/10/05 05:37:42;;;;;;;;;4.00;4.00;;;;;22.33;37.78;101778.69;146633;575;46018;-78
2022/10/05 05:41:09;;;;;;;;;4.25;4.25;;;;;23.37;37.03;101906.72;146633;721;45918;-77
2022/10/05 05:44:29;;;;;;;;;5.50;5.00;;;;;22.86;36.99;101759.41;146636;685;45010;-76
2022/10/05 05:47:34;;;;;;;;;4.00;3.75;;;;;23.95;36.99;101915.63;146633;579;45873;-78
2022/10/05 05:51:08;;;;;;;;;5.50;3.00;;;;;24.12;36.44;101912.38;146630;598;46010;-78
2022/10/05 05:54:46;;;;;;;;;4.25;3.25;;;;;24.16;36.27;101915.06;146630;640;45917;-77
2022/10/05 05:57:49;;;;;;;;;5.25;5.00;;;;;24.16;36.37;101922.13;146634;597;46020;-77
2022/10/05 06:01:27;;;;;;;;;4.75;4.75;;;;;23.26;36.04;101773.31;146631;600;45905;-75
2022/10/05 06:04:43;;;;;;;;;6.75;6.75;;;;;24.07;36.42;101929.94;146636;573;45010;-74
2022/10/05 06:07:38;;;;;;;;;5.00;5.00;;;;;23.93;36.73;101925.34;146633;628;45014;-75
2022/10/05 06:10:46;;;;;;;;;11.75;7.75;;;;;23.76;36.74;101934.75;146635;588;45020;-74
2022/10/05 06:14:00;;;;;;;;;3.75;3.75;;;;;23.66;36.86;101931.03;146632;592;45919;-73
2022/10/05 06:17:02;;;;;;;;;4.75;3.50;;;;;23.75;37.35;101932.97;146631;605;45021;-69
2022/10/05 06:19:59;;;;;;;;;5.00;5.00;;;;;23.80;36.88;101941.00;146634;580;46012;-69
2022/10/05 06:23:01;;;;;;;;;6.00;3.00;;;;;23.81;37.26;101948.97;146631;702;45020;-71
2022/10/05 06:26:34;;;;;;;;;5.50;5.00;;;;;23.24;36.57;101838.56;146619;709;46012;-71
2022/10/05 06:29:55;;;;;;;;;9.25;8.00;;;;;23.93;36.65;101951.81;146618;644;46022;-73
2022/10/05 06:33:31;;;;;;;;;6.25;5.00;;;;;24.05;36.35;101955.50;146620;694;46012;-72
2022/10/05 06:37:06;;;;;;;;;7.00;5.00;;;;;24.20;36.50;101951.38;146622;706;46012;-71
2022/10/05 06:41:03;;;;;;;;;25.25;25.25;;;;;23.83;36.53;101862.50;146614;689;46016;-73
2022/10/05 06:44:31;;;;;;;;;4.75;4.75;;;;;24.65;36.31;101962.59;146614;597;46021;-72
2022/10/05 06:48:06;;;;;;;;;9.75;9.75;;;;;24.87;36.10;101966.41;146613;624;46016;-73
2022/10/05 06:51:30;;;;;;;;;19.25;16.50;;;;;25.04;34.86;101977.22;146619;759;46021;-70
2022/10/05 06:54:49;;;;;;;;;12.50;10.00;;;;;25.11;35.92;101971.12;146609;581;46016;-72
2022/10/05 06:58:17;;;;;;;;;9.25;9.00;;;;;25.19;34.87;101974.75;146611;629;46010;-71
2022/10/05 07:01:47;;;;;;;;;;;;;;;;;;;;;
2022/10/05 07:05:28;;;;;;;;;4.25;4.25;;;;;25.07;35.44;101985.22;146619;707;46010;-72
2022/10/05 07:09:02;;;;;;;;;3.00;3.00;;;;;24.31;35.48;101847.25;146618;656;46016;-71
2022/10/05 07:13:00;;;;;;;;;10.00;7.00;;;;;24.43;35.78;101850.97;146621;570;46012;-71
2022/10/05 07:16:28;;;;;;;;;6.50;5.25;;;;;25.34;35.45;101996.16;146608;708;49919;-71
2022/10/05 07:19:56;;;;;;;;;5.50;3.75;;;;;25.24;35.19;101999.59;146622;656;46012;-72
2022/10/05 07:23:42;;;;;;;;;5.33;4.00;;;;;25.10;35.99;102001.16;146615;566;46017;-71
2022/10/05 07:27:07;;;;;;;;;8.00;5.00;;;;;24.37;35.83;101857.91;146636;664;45020;-70
2022/10/05 07:30:21;;;;;;;;;6.75;4.75;;;;;25.23;35.17;102003.13;146631;665;46012;-72
2022/10/05 07:33:41;;;;;;;;;5.00;4.00;;;;;25.23;35.48;101994.25;146633;582;45010;-71
2022/10/05 07:40:30;;;;;;;;;6.00;4.50;;;;;25.03;35.18;101999.31;146637;629;45020;-71
2022/10/05 07:43:59;;;;;;;;;6.75;5.00;;;;;24.27;36.14;101862.22;146635;566;45016;-72
2022/10/05 07:47:19;;;;;;;;;6.50;5.50;;;;;25.16;35.96;102000.38;146633;621;46010;-71
2022/10/05 07:50:44;;;;;;;;;5.00;5.00;;;;;25.08;36.09;102002.94;146635;580;45018;-71
2022/10/05 07:54:24;;;;;;;;;6.00;4.75;;;;;25.14;36.07;101999.47;146634;611;45012;-71
2022/10/05 07:58:12;;;;;;;;;5.00;4.50;;;;;24.47;35.44;101861.59;146637;572;45012;-71
2022/10/05 08:01:41;;;;;;;;;5.33;4.67;;;;;24.62;35.60;101881.25;146638;579;45010;-71
2022/10/05 08:04:49;;;;;;;;;4.50;3.75;;;;;25.39;34.90;101992.66;146634;585;45016;-72
2022/10/05 08:07:51;;;;;;;;;4.00;4.00;;;;;25.49;35.17;101997.22;146634;664;45020;-71
2022/10/05 08:11:30;;;;;;;;;5.50;5.00;;;;;25.67;35.30;101997.38;146634;620;45016;-72
2022/10/05 08:15:16;;;;;;;;;6.00;5.00;;;;;25.15;34.94;101892.44;146635;581;45020;-71
2022/10/05 08:18:48;;;;;;;;;6.00;6.00;;;;;24.87;35.16;101857.63;146635;573;45016;-73
2022/10/05 08:22:16;;;;;;;;;3.75;3.50;;;;;24.77;35.77;101869.03;146635;591;45020;-70
2022/10/05 08:25:28;;;;;;;;;4.75;4.75;;;;;25.52;35.62;102015.84;146625;592;46016;-71
2022/10/05 08:28:42;;;;;;;;;3.50;3.50;;;;;25.46;35.58;102007.81;146621;566;46021;-72
2022/10/05 08:31:54;;;;;;;;;;;;;;;;;;;;;
2022/10/05 08:35:42;;;;;;;;;4.75;4.00;;;;;25.53;35.73;102012.28;146621;581;46021;-71
2022/10/05 08:38:39;;;;;;;;;4.75;4.00;;;;;25.66;35.96;102021.25;146618;569;46018;-71
2022/10/05 08:42:22;;;;;;;;;4.00;4.00;;;;;25.64;36.19;102015.94;146620;638;46013;-71
2022/10/05 08:46:09;;;;;;;;;7.00;5.75;;;;;24.50;36.45;101880.19;146615;701;46012;-72
2022/10/05 08:49:46;;;;;;;;;;;;;;;;;;;;;
2022/10/05 08:53:20;;;;;;;;;6.00;5.00;;;;;22.47;37.17;101725.22;146618;646;47016;-69
2022/10/05 08:56:50;;;;;;;;;5.00;5.00;;;;;23.76;38.26;102015.97;146622;629;46020;-76
2022/10/05 09:00:27;;;;;;;;;7.00;6.25;;;;;23.70;39.62;102027.34;146619;708;46012;-71
2022/10/05 09:04:18;;;;;;;;;7.67;5.67;;;;;22.92;40.24;101882.94;146621;571;46010;-71
2022/10/05 09:07:54;;;;;;;;;5.75;5.75;;;;;22.92;39.55;101880.28;146620;614;46016;-71
2022/10/05 09:11:36;;;;;;;;;5.75;5.75;;;;;23.65;39.83;102029.87;146621;664;46020;-70
2022/10/05 09:15:04;;;;;;;;;6.25;6.25;;;;;23.72;39.14;102028.28;146614;688;47016;-71
2022/10/05 09:18:36;;;;;;;;;;;;;;;;;;;;;
2022/10/05 09:22:06;;;;;;;;;6.50;5.25;;;;;24.37;38.79;102027.59;146621;709;46942;-70
2022/10/05 09:25:29;;;;;;;;;4.00;4.00;;;;;24.63;37.79;102026.22;146625;705;46012;-68
2022/10/05 09:28:33;;;;;;;;;6.25;5.25;;;;;24.83;37.38;102036.22;146619;706;47012;-70
2022/10/05 09:32:01;;;;;;;;;6.00;6.00;;;;;25.02;37.24;102019.66;146623;564;46020;-71
2022/10/05 09:35:33;;;;;;;;;4.00;3.75;;;;;25.07;37.12;102025.00;146622;580;46012;-71
2022/10/05 09:39:31;;;;;;;;;4.00;4.00;;;;;24.74;37.42;102033.44;146624;651;46020;-71
2022/10/05 09:43:06;;;;;;;;;5.00;4.00;;;;;24.35;38.38;102035.50;146622;711;46012;-70
2022/10/05 09:46:49;;;;;;;;;;;;;;;;;;;;;
2022/10/05 09:50:22;;;;;;;;;6.00;6.00;;;;;23.77;38.57;102034.56;146619;565;46012;-70
2022/10/05 09:53:55;;;;;;;;;7.00;5.00;;;;;23.72;39.12;102041.50;146624;681;46021;-71
2022/10/05 09:57:37;;;;;;;;;5.00;5.00;;;;;23.67;38.83;102045.78;146618;703;46917;-70
2022/10/05 10:01:28;;;;;;;;;6.00;4.50;;;;;23.65;38.91;102031.66;146622;679;46020;-71
2022/10/05 10:05:12;;;;;;;;;3.25;3.25;;;;;23.70;38.72;102037.94;146619;579;46018;-71
2022/10/05 10:08:41;;;;;;;;;5.50;5.25;;;;;23.84;38.58;102032.91;146623;572;46013;-72
2022/10/05 10:12:16;;;;;;;;;7.25;4.75;;;;;23.88;38.55;102032.06;146622;688;46012;-71
2022/10/05 10:15:44;;;;;;;;;7.00;7.00;;;;;23.88;38.67;102027.66;146622;602;46020;-72
2022/10/05 10:19:18;;;;;;;;;5.00;5.00;;;;;23.97;38.80;102027.81;146639;674;45012;-69
2022/10/05 10:22:50;;;;;;;;;4.75;3.75;;;;;23.95;38.00;101991.56;146644;579;45026;-69
2022/10/05 10:26:26;;;;;;;;;6.00;5.75;;;;;24.29;37.79;102022.16;146639;605;45016;-71
2022/10/05 10:30:15;;;;;;;;;5.50;5.00;;;;;24.49;37.54;102025.16;146643;575;45020;-71
2022/10/05 10:33:48;;;;;;;;;5.50;5.50;;;;;24.81;37.33;102020.28;146643;611;45012;-71
2022/10/05 10:37:38;;;;;;;;;5.00;4.00;;;;;25.06;36.83;102024.13;146645;715;45010;-71
2022/10/05 10:41:36;;;;;;;;;5.50;5.50;;;;;25.16;37.30;102021.62;146639;624;45914;-70
2022/10/05 10:45:24;;;;;;;;;5.00;4.00;;;;;25.12;36.70;102023.31;146649;575;45010;-72
2022/10/05 10:48:58;;;;;;;;;5.00;5.00;;;;;25.00;37.12;102012.56;146644;660;45012;-71
2022/10/05 10:52:30;;;;;;;;;10.00;9.00;;;;;24.86;36.95;102015.94;146644;674;46021;-71
2022/10/05 10:56:07;;;;;;;;;7.00;5.25;;;;;24.60;38.20;102010.25;146638;596;45913;-70
2022/10/05 10:59:55;;;;;;;;;6.00;5.00;;;;;24.27;37.55;102007.09;146644;570;45020;-71
2022/10/05 11:03:47;;;;;;;;;4.00;4.00;;;;;23.86;38.80;102002.94;146635;652;45016;-70
2022/10/05 11:07:20;;;;;;;;;5.00;5.00;;;;;23.56;39.29;102005.00;146647;626;45010;-71
2022/10/05 11:10:57;;;;;;;;;3.50;3.50;;;;;23.29;39.96;102003.59;146640;712;45916;-70
2022/10/05 11:14:50;;;;;;;;;4.50;4.50;;;;;23.16;39.67;102007.78;146646;577;45010;-69
2022/10/05 11:18:39;;;;;;;;;6.00;5.00;;;;;23.09;39.65;102005.00;146643;606;45012;-70
2022/10/05 11:22:11;;;;;;;;;4.00;4.00;;;;;23.02;39.69;102004.88;146645;619;46010;-70
2022/10/05 11:25:47;;;;;;;;;5.25;5.25;;;;;22.95;40.19;102002.94;146639;628;45016;-69
2022/10/05 11:29:30;;;;;;;;;5.00;5.00;;;;;22.92;39.81;101996.66;146644;584;45020;-69
2022/10/05 11:32:59;;;;;;;;;5.75;5.50;;;;;22.79;39.69;101998.16;146639;585;45016;-70
2022/10/05 11:36:58;;;;;;;;;4.00;3.00;;;;;22.74;40.15;101997.16;146644;569;45020;-73
2022/10/05 11:40:19;;;;;;;;;4.50;4.00;;;;;22.68;40.20;102002.31;146641;657;45016;-71
2022/10/05 11:44:17;;;;;;;;;3.75;3.75;;;;;22.62;40.61;102000.44;146640;616;46008;-71
2022/10/05 11:47:35;;;;;;;;;5.50;5.50;;;;;22.44;42.21;101998.28;146638;658;45913;-70
2022/10/05 11:51:26;;;;;;;;;4.50;4.50;;;;;22.28;41.32;101993.50;146642;578;45020;-69
2022/10/05 11:55:00;;;;;;;;;5.00;5.00;;;;;22.17;41.31;102002.91;146640;611;45012;-70
2022/10/05 11:58:43;;;;;;;;;6.00;5.50;;;;;21.89;41.03;101954.66;146646;588;45010;-70
2022/10/05 12:02:13;;;;;;;;;7.00;6.50;;;;;22.12;41.64;101995.75;146642;603;46012;-70
2022/10/05 12:05:53;;;;;;;;;6.00;5.25;;;;;22.17;40.80;102000.28;146642;566;45020;-71
2022/10/05 12:09:22;;;;;;;;;7.00;7.00;;;;;22.25;41.09;102001.34;146643;660;45012;-70
2022/10/05 12:12:38;;;;;;;;;10.50;8.25;;;;;22.30;40.63;102008.50;146639;659;45012;-71
2022/10/05 12:15:47;;;;;;;;;9.50;8.25;;;;;22.36;42.69;102013.06;146637;715;46916;-71
2022/10/05 12:19:12;;;;;;;;;10.25;7.50;;;;;22.45;41.65;102009.72;146623;579;46020;-72
2022/10/05 12:22:45;;;;;;;;;5.50;5.00;;;;;22.49;40.71;102001.94;146619;612;46017;-70
2022/10/05 12:26:07;;;;;;;;;6.00;6.00;;;;;22.53;41.38;102005.53;146622;717;46020;-71
2022/10/05 12:29:25;;;;;;;;;7.00;6.25;;;;;22.51;41.41;102001.94;146620;667;46017;-70
2022/10/05 12:33:02;;;;;;;;;6.00;6.00;;;;;21.43;41.54;101830.41;146622;585;46020;-71
2022/10/05 12:36:10;;;;;;;;;7.50;6.00;;;;;22.22;42.87;102001.28;146616;569;46017;-71
2022/10/05 12:39:29;;;;;;;;;4.75;4.75;;;;;21.99;43.24;102003.31;146622;688;46021;-71
2022/10/05 12:42:49;;;;;;;;;3.33;3.00;;;;;21.83;44.07;102005.56;146620;625;46012;-71
2022/10/05 12:46:13;;;;;;;;;5.00;4.25;;;;;21.71;44.15;102005.25;146625;621;46012;-71
2022/10/05 12:49:37;;;;;;;;;6.00;6.00;;;;;21.64;43.50;102003.31;146619;592;46913;-71
2022/10/05 12:53:07;;;;;;;;;6.00;6.00;;;;;21.61;43.50;101995.31;146625;648;46010;-71
2022/10/05 12:56:28;;;;;;;;;7.00;6.00;;;;;21.71;43.38;102005.25;146620;563;46915;-72
2022/10/05 12:59:54;;;;;;;;;7.00;6.00;;;;;21.78;43.32;102008.97;146624;587;46010;-71
2022/10/05 13:03:28;;;;;;;;;3.67;3.67;;;;;21.86;42.45;102010.03;146621;616;46012;-72
2022/10/05 13:06:47;;;;;;;;;6.00;6.00;;;;;21.93;42.25;102017.25;146623;680;46020;-71
2022/10/05 13:10:18;;;;;;;;;4.00;4.00;;;;;22.03;41.78;102028.97;146621;604;46012;-72
2022/10/05 13:13:46;;;;;;;;;8.25;7.25;;;;;22.11;42.57;102003.63;146623;671;46020;-72
2022/10/05 13:17:09;;;;;;;;;9.25;8.00;;;;;22.22;42.28;102009.22;146619;576;46030;-72
2022/10/05 13:20:34;;;;;;;;;8.25;7.00;;;;;22.27;42.76;101997.88;146623;575;46020;-72
2022/10/05 13:24:08;;;;;;;;;11.00;10.00;;;;;22.33;42.01;101995.38;146618;591;46012;-72
2022/10/05 13:27:40;;;;;;;;;7.75;7.75;;;;;22.42;42.18;101993.81;146625;729;46010;-72
2022/10/05 13:30:43;;;;;;;;;10.50;8.00;;;;;22.49;42.29;102001.00;146619;583;46016;-71
2022/10/05 13:34:13;;;;;;;;;8.75;6.75;;;;;22.55;41.88;101996.78;146621;731;46020;-72
2022/10/05 13:38:00;;;;;;;;;6.50;6.50;;;;;22.67;41.40;101992.59;146622;579;46916;-71
2022/10/05 13:41:43;;;;;;;;;6.00;6.00;;;;;21.93;41.01;101853.53;146624;652;46020;-71
2022/10/05 13:45:15;;;;;;;;;7.50;7.50;;;;;22.73;40.82;101983.03;146621;642;46016;-72
2022/10/05 13:48:45;;;;;;;;;8.75;7.75;;;;;22.82;41.62;101987.62;146625;573;46010;-72
2022/10/05 13:51:51;;;;;;;;;4.50;4.00;;;;;22.79;41.54;101982.28;146621;570;46016;-73
2022/10/05 13:55:20;;;;;;;;;6.50;6.25;;;;;22.81;41.25;101981.47;146625;674;45021;-72
2022/10/05 13:59:01;;;;;;;;;3.75;2.25;;;;;22.95;40.55;101981.78;146620;623;47012;-73
2022/10/05 14:02:35;;;;;;;;;6.00;4.00;;;;;23.07;40.71;101974.94;146623;626;46021;-71
2022/10/05 14:05:34;;;;;;;;;7.00;6.25;;;;;23.07;41.21;101972.31;146619;684;46018;-69
2022/10/05 14:08:49;;;;;;;;;6.25;5.00;;;;;23.17;41.13;101967.22;146624;667;46021;-70
2022/10/05 14:12:27;;;;;;;;;6.00;6.00;;;;;23.42;40.12;101967.66;146620;669;46915;-70
2022/10/05 14:15:34;;;;;;;;;5.50;4.25;;;;;23.62;40.36;101963.62;146620;626;46010;-70
2022/10/05 14:18:55;;;;;;;;;3.50;3.50;;;;;22.96;39.65;101823.94;146622;604;46012;-70
2022/10/05 14:21:57;;;;;;;;;4.50;4.50;;;;;23.73;39.48;101961.19;146624;624;46020;-70
2022/10/05 14:25:27;;;;;;;;;3.75;3.75;;;;;23.67;39.86;101953.09;146619;590;46017;-70
2022/10/05 14:28:42;;;;;;;;;5.00;5.00;;;;;23.60;39.32;101951.22;146623;644;46020;-72
2022/10/05 14:32:00;;;;;;;;;5.00;5.00;;;;;23.59;39.64;101955.63;146619;597;46017;-70
2022/10/05 14:35:27;;;;;;;;;7.25;5.75;;;;;23.67;39.56;101958.41;146623;708;46020;-70
2022/10/05 14:39:00;;;;;;;;;6.00;6.00;;;;;23.75;39.44;101954.19;146618;677;46016;-69
2022/10/05 14:41:55;;;;;;;;;7.00;7.00;;;;;23.79;39.34;101956.00;146623;679;46012;-70
2022/10/05 14:45:23;;;;;;;;;7.00;6.00;;;;;23.67;39.36;101953.09;146617;603;46017;-66
2022/10/05 14:48:21;;;;;;;;;6.25;6.25;;;;;23.66;39.45;101952.22;146625;613;46020;-67
2022/10/05 14:51:41;;;;;;;;;8.00;6.00;;;;;23.65;39.29;101958.41;146622;575;46012;-67
2022/10/05 14:55:10;;;;;;;;;3.75;3.75;;;;;23.61;39.45;101959.19;146626;671;46010;-67
2022/10/05 14:58:40;;;;;;;;;5.00;5.00;;;;;23.53;40.03;101963.47;146621;649;46012;-67
2022/10/05 15:01:49;;;;;;;;;;;;;;;;;;;;;
2022/10/05 15:05:00;;;;;;;;;4.67;4.67;;;;;23.11;40.38;101966.19;146622;591;46016;-67
2022/10/05 15:07:56;;;;;;;;;5.00;5.00;;;;;22.88;40.71;101971.91;146622;589;46012;-68
2022/10/05 15:11:13;;;;;;;;;5.33;3.00;;;;;22.72;41.29;101967.16;146621;631;46012;-69
2022/10/05 15:14:25;;;;;;;;;5.00;4.00;;;;;22.70;41.39;101979.44;146621;577;46020;-67
2022/10/05 15:17:39;;;;;;;;;2.50;2.50;;;;;22.68;41.36;101974.16;146618;620;46016;-68
2022/10/05 15:21:11;;;;;;;;;6.50;5.75;;;;;22.63;41.78;101985.47;146621;564;45020;-67
2022/10/05 15:24:09;;;;;;;;;3.00;3.00;;;;;22.47;41.99;101987.78;146614;612;47916;-67
2022/10/05 15:27:59;;;;;;;;;;;;;;;;;;;;;
2022/10/05 15:31:35;;;;;;;;;5.00;5.00;;;;;20.51;41.69;101685.66;146610;695;46014;-67
2022/10/05 15:35:04;;;;;;;;;4.67;4.67;;;;;22.18;41.75;101980.91;146621;670;46020;-67
2022/10/05 15:37:55;;;;;;;;;3.33;3.33;;;;;22.07;42.02;101986.81;146704;566;46014;-67
2022/10/05 15:41:29;;;;;;;;;;;;;;;;;;;;;
2022/10/05 15:45:02;;;;;;;;;6.00;5.50;;;;;21.96;41.98;101996.19;146620;635;46020;-67
2022/10/05 15:48:38;;;;;;;;;3.00;3.00;;;;;21.85;41.93;101993.31;146617;683;46016;-66
2022/10/05 15:52:14;;;;;;;;;4.00;4.00;;;;;21.70;41.95;101984.09;146623;592;46010;-67
2022/10/05 15:55:38;;;;;;;;;3.25;3.25;;;;;21.67;42.40;101990.19;146619;673;46033;-67
2022/10/05 15:59:03;;;;;;;;;5.75;5.75;;;;;21.61;42.49;101990.03;146621;708;46020;-68
2022/10/05 16:02:13;;;;;;;;;5.75;5.75;;;;;21.58;42.58;101990.84;146617;681;46012;-68
2022/10/05 16:09:39;;;;;;;;;4.75;4.00;;;;;21.68;42.50;101994.62;146618;675;46013;-66
2022/10/05 16:13:21;;;;;;;;;5.00;4.00;;;;;21.73;42.53;102007.94;146623;679;46010;-67
2022/10/05 16:16:58;;;;;;;;;6.00;6.00;;;;;21.53;43.33;101992.50;146617;678;46021;-67
2022/10/05 16:20:46;;;;;;;;;4.75;4.75;;;;;21.30;43.50;102010.28;146617;569;46020;-66
2022/10/05 16:24:19;;;;;;;;;4.50;4.50;;;;;21.01;44.74;102009.47;146617;573;46913;-66
2022/10/05 16:27:52;;;;;;;;;4.25;4.25;;;;;20.80;45.17;102022.03;146622;615;46010;-67